Time;durP1;ratioP1;P1;durP2;ratioP2;P2;SDS_P1;SDS_P2;PMS_P1;PMS_P2;Temp;Humidity;BMP_temperature;BMP_pressure;BME280_temperature;BME280_humidity;BME280_pressure;Samples;Min_cycle;Max_cycle;Signal;HPM_P1;HPM_P2
2022/01/23 00:00:04;;;;;;;;;;;14.20;58.20;;;;;;5115132;28;19924;-73
2022/01/23 00:02:33;;;;;;;;;;;14.20;58.20;;;;;;5115396;28;19977;-73
2022/01/23 00:05:05;;;;;;;;;;;14.20;58.30;;;;;;5114937;28;19930;-73
2022/01/23 00:07:32;;;;;;;;;;;14.20;58.30;;;;;;5115086;28;19924;-74
2022/01/23 00:10:00;;;;;;;;;;;14.20;58.30;;;;;;5115194;28;19927;-73
2022/01/23 00:12:30;;;;;;;;;;;14.20;58.40;;;;;;5116218;28;19993;-73
2022/01/23 00:17:41;;;;;;;;;;;14.10;58.40;;;;;;5116141;28;19924;-73
2022/01/23 00:20:09;;;;;;;;;;;14.10;58.40;;;;;;5114586;28;20011;-74
2022/01/23 00:22:40;;;;;;;;;;;14.00;58.40;;;;;;5114916;28;20030;-73
2022/01/23 00:30:39;;;;;;;;;;;14.00;58.40;;;;;;5114844;28;19920;-73
2022/01/23 00:33:06;;;;;;;;;;;14.00;58.50;;;;;;5115762;28;19930;-73
2022/01/23 00:35:33;;;;;;;;;;;14.00;58.50;;;;;;5115467;28;20007;-73
2022/01/23 00:38:00;;;;;;;;;;;14.00;58.50;;;;;;5114692;28;19974;-73
2022/01/23 00:40:29;;;;;;;;;;;13.90;58.40;;;;;;5114511;28;20015;-73
2022/01/23 00:42:58;;;;;;;;;;;13.90;58.50;;;;;;5114391;28;20014;-73
2022/01/23 00:45:30;;;;;;;;;;;13.90;58.50;;;;;;5111189;28;19972;-74
2022/01/23 00:48:00;;;;;;;;;;;13.90;58.50;;;;;;5093870;28;20373;-73
2022/01/23 00:50:27;;;;;;;;;;;13.90;58.60;;;;;;5093356;28;19928;-73
2022/01/23 00:52:54;;;;;;;;;;;13.90;58.60;;;;;;5093702;28;19930;-73
2022/01/23 00:55:20;;;;;;;;;;;13.90;58.60;;;;;;5093769;28;20007;-73
2022/01/23 00:57:48;;;;;;;;;;;13.90;58.60;;;;;;5093817;28;20388;-73
2022/01/23 01:00:15;;;;;;;;;;;13.80;58.50;;;;;;5093928;28;20014;-73
2022/01/23 01:02:42;;;;;;;;;;;13.80;58.60;;;;;;5093825;28;19927;-73
2022/01/23 01:05:09;;;;;;;;;;;13.80;58.60;;;;;;5093746;28;20129;-73
2022/01/23 01:07:36;;;;;;;;;;;13.80;58.60;;;;;;5093291;28;20403;-73
2022/01/23 01:10:08;;;;;;;;;;;13.80;58.60;;;;;;5094626;28;20036;-73
2022/01/23 01:12:39;;;;;;;;;;;13.80;58.60;;;;;;5094708;28;19924;-73
2022/01/23 01:15:29;;;;;;;;;;;13.70;58.60;;;;;;5093241;28;19974;-73
2022/01/23 01:31:42;;;;;;;;;;;13.70;58.80;;;;;;5114738;28;19919;-73
2022/01/23 01:34:13;;;;;;;;;;;13.60;58.70;;;;;;5114923;28;19924;-73
2022/01/23 01:36:47;;;;;;;;;;;13.60;58.70;;;;;;5113105;28;20022;-73
2022/01/23 01:39:13;;;;;;;;;;;13.60;59.30;;;;;;5114741;28;19927;-73
2022/01/23 01:41:41;;;;;;;;;;;13.60;58.70;;;;;;5114443;28;19923;-73
2022/01/23 01:44:07;;;;;;;;;;;13.60;58.80;;;;;;5113351;28;20396;-73
2022/01/23 01:46:34;;;;;;;;;;;13.60;58.80;;;;;;5112774;28;20006;-73
2022/01/23 01:49:02;;;;;;;;;;;13.60;58.80;;;;;;5114281;28;20020;-73
2022/01/23 01:51:31;;;;;;;;;;;13.60;58.80;;;;;;5114058;28;20344;-73
2022/01/23 01:54:05;;;;;;;;;;;13.50;58.70;;;;;;5112908;28;19923;-73
2022/01/23 01:56:38;;;;;;;;;;;13.50;58.80;;;;;;5112837;28;19967;-74
2022/01/23 01:59:22;;;;;;;;;;;13.50;58.80;;;;;;5112953;28;19924;-73
2022/01/23 02:10:04;;;;;;;;;;;13.50;58.80;;;;;;5112421;28;20451;-73
2022/01/23 02:18:20;;;;;;;;;;;13.50;58.80;;;;;;5112623;28;19919;-73
2022/01/23 02:23:57;;;;;;;;;;;13.50;58.90;;;;;;5112506;28;20018;-73
2022/01/23 02:51:10;;;;;;;;;;;13.40;58.80;;;;;;5091723;28;19924;-73
2022/01/23 02:54:03;;;;;;;;;;;13.40;58.80;;;;;;5092799;28;19931;-73
2022/01/23 02:56:34;;;;;;;;;;;13.40;58.90;;;;;;5091060;28;19924;-73
2022/01/23 02:59:11;;;;;;;;;;;13.40;58.80;;;;;;5091756;28;20300;-73
2022/01/23 03:01:47;;;;;;;;;;;13.40;58.80;;;;;;5091480;28;19967;-73
2022/01/23 03:04:20;;;;;;;;;;;13.40;58.80;;;;;;5091622;28;19967;-73
2022/01/23 03:06:57;;;;;;;;;;;13.40;58.80;;;;;;5091357;28;20019;-73
2022/01/23 03:14:58;;;;;;;;;;;13.50;58.80;;;;;;5090025;28;20377;-73
2022/01/23 03:26:11;;;;;;;;;;;13.50;58.80;;;;;;5110933;28;20229;-73
2022/01/23 03:28:50;;;;;;;;;;;13.60;58.80;;;;;;5111566;28;19924;-73
2022/01/23 03:31:22;;;;;;;;;;;13.50;58.70;;;;;;5112914;28;19973;-73
2022/01/23 03:33:49;;;;;;;;;;;13.50;58.70;;;;;;5111546;28;20348;-73
2022/01/23 03:36:16;;;;;;;;;;;13.60;58.70;;;;;;5109345;28;19923;-73
2022/01/23 03:38:42;;;;;;;;;;;13.60;58.70;;;;;;5112237;28;20296;-73
2022/01/23 03:41:10;;;;;;;;;;;13.60;58.70;;;;;;5111521;28;20014;-73
2022/01/23 03:43:39;;;;;;;;;;;13.60;58.60;;;;;;5111408;28;20288;-73
2022/01/23 03:46:33;;;;;;;;;;;13.60;58.60;;;;;;5110672;28;19976;-73
2022/01/23 03:51:44;;;;;;;;;;;13.70;58.60;;;;;;5111504;28;19924;-73
2022/01/23 03:54:11;;;;;;;;;;;13.70;58.60;;;;;;5111081;28;20018;-73
2022/01/23 03:56:39;;;;;;;;;;;13.70;58.50;;;;;;5112251;28;20014;-73
2022/01/23 03:59:05;;;;;;;;;;;13.70;58.50;;;;;;5112385;28;20015;-73
2022/01/23 04:01:32;;;;;;;;;;;13.70;58.50;;;;;;5111267;28;20010;-73
2022/01/23 04:04:02;;;;;;;;;;;13.70;58.50;;;;;;5111204;28;20396;-73
2022/01/23 04:06:28;;;;;;;;;;;13.70;58.50;;;;;;5110819;28;19967;-73
2022/01/23 04:08:55;;;;;;;;;;;13.70;58.50;;;;;;5112252;28;19924;-73
2022/01/23 04:11:22;;;;;;;;;;;13.80;58.50;;;;;;5111214;28;20003;-73
2022/01/23 04:13:56;;;;;;;;;;;13.80;58.40;;;;;;5111190;28;19931;-73
2022/01/23 04:17:04;;;;;;;;;;;13.80;58.40;;;;;;5111792;28;19930;-73
2022/01/23 04:19:41;;;;;;;;;;;13.80;58.40;;;;;;5111302;28;19931;-73
2022/01/23 05:00:48;;;;;;;;;;;13.90;58.30;;;;;;5111005;28;19920;-73
2022/01/23 05:06:01;;;;;;;;;;;13.90;58.20;;;;;;5059904;28;20024;-73
2022/01/23 05:08:30;;;;;;;;;;;13.90;58.20;;;;;;5093810;28;19924;-73
2022/01/23 05:10:59;;;;;;;;;;;13.90;58.20;;;;;;5111616;28;19923;-73
2022/01/23 05:13:26;;;;;;;;;;;13.90;58.20;;;;;;5114041;28;19962;-73
2022/01/23 05:15:52;;;;;;;;;;;13.90;58.20;;;;;;5113591;28;20018;-73
2022/01/23 05:18:20;;;;;;;;;;;13.90;58.20;;;;;;5114006;28;19931;-73
2022/01/23 05:20:50;;;;;;;;;;;13.90;58.20;;;;;;5113322;28;19967;-73
2022/01/23 05:23:16;;;;;;;;;;;13.90;58.20;;;;;;5113835;28;20480;-73
2022/01/23 05:25:43;;;;;;;;;;;13.90;58.20;;;;;;5114628;28;20002;-73
2022/01/23 05:28:10;;;;;;;;;;;13.90;58.10;;;;;;5113657;28;20014;-73
2022/01/23 05:30:38;;;;;;;;;;;13.90;58.10;;;;;;5114624;27;20434;-73
2022/01/23 05:33:04;;;;;;;;;;;14.30;58.40;;;;;;5113413;28;19931;-73
2022/01/23 05:35:32;;;;;;;;;;;13.90;58.10;;;;;;5114394;28;20011;-73
2022/01/23 05:37:59;;;;;;;;;;;13.90;58.10;;;;;;5114604;28;20018;-73
2022/01/23 05:40:28;;;;;;;;;;;13.90;58.10;;;;;;5113235;28;19978;-74
2022/01/23 05:42:55;;;;;;;;;;;13.90;58.20;;;;;;5113216;28;19923;-73
2022/01/23 05:45:21;;;;;;;;;;;13.90;58.10;;;;;;5109124;28;20015;-73
2022/01/23 05:47:48;;;;;;;;;;;13.90;58.10;;;;;;5092884;28;20026;-73
2022/01/23 05:50:14;;;;;;;;;;;13.90;58.10;;;;;;5092434;28;20428;-73
2022/01/23 05:52:42;;;;;;;;;;;13.90;58.10;;;;;;5093937;28;20042;-73
2022/01/23 05:55:09;;;;;;;;;;;13.90;58.20;;;;;;5092771;28;20011;-73
2022/01/23 05:57:36;;;;;;;;;;;13.90;58.10;;;;;;5093584;28;20006;-73
2022/01/23 06:00:02;;;;;;;;;;;13.90;58.10;;;;;;5093913;28;19924;-73
2022/01/23 06:02:29;;;;;;;;;;;13.90;58.10;;;;;;5092475;28;20388;-73
2022/01/23 06:04:56;;;;;;;;;;;13.90;58.10;;;;;;5092315;28;20007;-73
2022/01/23 06:07:22;;;;;;;;;;;13.90;58.20;;;;;;5111025;28;20018;-74
2022/01/23 06:09:51;;;;;;;;;;;13.90;58.10;;;;;;5112696;28;20014;-73
2022/01/23 06:12:17;;;;;;;;;;;13.90;58.10;;;;;;5113590;28;20411;-73
2022/01/23 06:14:44;;;;;;;;;;;13.90;58.10;;;;;;5113772;28;20011;-73
2022/01/23 06:17:10;;;;;;;;;;;13.90;58.70;;;;;;5112549;28;20015;-73
2022/01/23 06:19:38;;;;;;;;;;;13.90;58.10;;;;;;5113618;28;20014;-73
2022/01/23 06:22:05;;;;;;;;;;;13.90;58.10;;;;;;5111925;28;19924;-73
2022/01/23 06:24:32;;;;;;;;;;;13.90;58.10;;;;;;5112458;28;19928;-73
2022/01/23 06:27:01;;;;;;;;;;;13.90;58.10;;;;;;5112432;28;19966;-73
2022/01/23 06:29:30;;;;;;;;;;;13.90;58.10;;;;;;5112125;28;19935;-73
2022/01/23 06:31:57;;;;;;;;;;;13.90;58.10;;;;;;5112566;28;19959;-73
2022/01/23 06:34:24;;;;;;;;;;;13.90;58.10;;;;;;5113231;28;19963;-73
2022/01/23 06:36:52;;;;;;;;;;;13.90;58.10;;;;;;5113427;28;19928;-73
2022/01/23 06:39:19;;;;;;;;;;;13.90;58.10;;;;;;5112124;28;19963;-73
2022/01/23 06:41:45;;;;;;;;;;;13.90;58.10;;;;;;5113228;28;20389;-73
2022/01/23 06:44:13;;;;;;;;;;;14.00;58.10;;;;;;5111701;28;20014;-73
2022/01/23 06:46:40;;;;;;;;;;;13.90;58.10;;;;;;5112900;28;19930;-73
2022/01/23 06:49:07;;;;;;;;;;;13.90;58.10;;;;;;5112644;28;19924;-73
2022/01/23 06:51:33;;;;;;;;;;;13.90;58.10;;;;;;5113171;28;19963;-73
2022/01/23 06:54:00;;;;;;;;;;;13.90;58.10;;;;;;5113167;28;19924;-73
2022/01/23 06:56:26;;;;;;;;;;;14.00;58.10;;;;;;5111489;28;19927;-73
2022/01/23 06:58:54;;;;;;;;;;;14.00;58.10;;;;;;5113112;28;20019;-73
2022/01/23 07:01:21;;;;;;;;;;;14.00;58.10;;;;;;5112806;28;20494;-74
2022/01/23 07:03:48;;;;;;;;;;;13.90;58.00;;;;;;5111729;28;19930;-74
2022/01/23 07:06:15;;;;;;;;;;;13.90;58.00;;;;;;5112778;28;20007;-73
2022/01/23 07:08:41;;;;;;;;;;;14.00;58.10;;;;;;5112968;28;20512;-73
2022/01/23 07:11:08;;;;;;;;;;;14.00;58.10;;;;;;5111419;28;20002;-73
2022/01/23 07:13:34;;;;;;;;;;;14.00;58.10;;;;;;5111734;28;19934;-74
2022/01/23 07:16:02;;;;;;;;;;;14.00;58.10;;;;;;5111144;28;19930;-73
2022/01/23 07:18:30;;;;;;;;;;;14.00;58.10;;;;;;5103757;28;19928;-73
2022/01/23 07:20:57;;;;;;;;;;;14.00;58.10;;;;;;5100489;28;20019;-73
2022/01/23 07:23:24;;;;;;;;;;;14.00;58.10;;;;;;5102370;28;19928;-74
2022/01/23 07:25:50;;;;;;;;;;;14.00;58.10;;;;;;5100970;28;20002;-73
2022/01/23 07:28:20;;;;;;;;;;;14.00;58.10;;;;;;5102742;28;20014;-73
2022/01/23 07:30:51;;;;;;;;;;;14.00;58.10;;;;;;5099125;28;19931;-73
2022/01/23 07:33:17;;;;;;;;;;;14.00;58.70;;;;;;5100712;28;19975;-73
2022/01/23 07:35:45;;;;;;;;;;;14.00;58.10;;;;;;5102226;28;19932;-73
2022/01/23 07:38:16;;;;;;;;;;;14.00;58.10;;;;;;5102035;28;20503;-73
2022/01/23 07:40:43;;;;;;;;;;;14.00;58.10;;;;;;5101378;28;20277;-73
2022/01/23 07:43:09;;;;;;;;;;;14.00;58.00;;;;;;5108430;28;19999;-74
2022/01/23 07:45:36;;;;;;;;;;;14.00;58.00;;;;;;5105309;28;20011;-73
2022/01/23 07:48:03;;;;;;;;;;;14.00;58.00;;;;;;5091966;28;20282;-73
2022/01/23 07:50:29;;;;;;;;;;;14.00;58.10;;;;;;5090828;28;19924;-73
2022/01/23 07:52:57;;;;;;;;;;;14.00;58.00;;;;;;5091105;28;19924;-73
2022/01/23 07:55:24;;;;;;;;;;;14.00;58.00;;;;;;5091834;28;20292;-74
2022/01/23 07:57:52;;;;;;;;;;;12.20;57.00;;;;;;5092193;28;20051;-73
2022/01/23 08:00:19;;;;;;;;;;;14.00;58.00;;;;;;5114283;28;19924;-73
2022/01/23 08:02:46;;;;;;;;;;;14.00;58.00;;;;;;5115374;28;19924;-73
2022/01/23 08:05:12;;;;;;;;;;;14.00;58.00;;;;;;5115412;28;20007;-73
2022/01/23 08:07:39;;;;;;;;;;;14.00;58.00;;;;;;5115128;28;20011;-73
2022/01/23 08:10:08;;;;;;;;;;;14.00;58.00;;;;;;5116207;28;20372;-73
2022/01/23 08:12:35;;;;;;;;;;;14.00;58.00;;;;;;5112499;28;19930;-74
2022/01/23 08:15:01;;;;;;;;;;;14.00;58.00;;;;;;5097384;28;20015;-75
2022/01/23 08:17:28;;;;;;;;;;;14.00;58.00;;;;;;5113246;28;20428;-75
2022/01/23 08:19:55;;;;;;;;;;;14.00;58.00;;;;;;5115149;28;20002;-75
2022/01/23 08:22:22;;;;;;;;;;;14.00;58.00;;;;;;5104863;28;20003;-75
2022/01/23 08:24:49;;;;;;;;;;;14.40;58.30;;;;;;5105709;28;20019;-74
2022/01/23 08:27:17;;;;;;;;;;;14.00;58.00;;;;;;5104225;28;20026;-74
2022/01/23 08:29:43;;;;;;;;;;;14.00;58.00;;;;;;5102666;28;19967;-74
2022/01/23 08:32:10;;;;;;;;;;;14.00;58.00;;;;;;5104551;28;20036;-75
2022/01/23 08:34:36;;;;;;;;;;;14.10;58.10;;;;;;5105798;28;20010;-74
2022/01/23 08:37:03;;;;;;;;;;;14.10;58.00;;;;;;5105391;28;20010;-73
2022/01/23 08:39:32;;;;;;;;;;;14.10;58.00;;;;;;5105044;28;20018;-74
2022/01/23 08:41:59;;;;;;;;;;;14.10;58.00;;;;;;5103304;28;20353;-73
2022/01/23 08:44:27;;;;;;;;;;;14.20;58.10;;;;;;5104349;28;19930;-74
2022/01/23 08:46:54;;;;;;;;;;;14.20;58.00;;;;;;5105209;28;19935;-75
2022/01/23 08:49:21;;;;;;;;;;;14.20;57.90;;;;;;5122324;27;20014;-74
2022/01/23 08:51:48;;;;;;;;;;;14.20;57.90;;;;;;5103986;28;19975;-74
2022/01/23 08:54:15;;;;;;;;;;;14.30;57.90;;;;;;5105954;28;19938;-74
2022/01/23 08:56:41;;;;;;;;;;;14.30;57.80;;;;;;5103401;28;20448;-74
2022/01/23 08:59:08;;;;;;;;;;;14.30;57.80;;;;;;5104724;28;19923;-74
2022/01/23 09:01:36;;;;;;;;;;;14.30;57.80;;;;;;5105192;28;19928;-75
2022/01/23 09:04:02;;;;;;;;;;;14.40;57.80;;;;;;5105448;28;20034;-73
2022/01/23 09:06:29;;;;;;;;;;;14.40;57.80;;;;;;5104273;28;20003;-74
2022/01/23 09:08:58;;;;;;;;;;;14.40;57.80;;;;;;5103308;28;19932;-74
2022/01/23 09:11:27;;;;;;;;;;;14.40;57.80;;;;;;5103943;28;19927;-73
2022/01/23 09:14:06;;;;;;;;;;;14.40;57.70;;;;;;5104415;28;20351;-74
2022/01/23 09:16:33;;;;;;;;;;;14.40;57.60;;;;;;5102729;28;19932;-74
2022/01/23 09:19:01;;;;;;;;;;;14.50;57.70;;;;;;5105000;28;20003;-73
2022/01/23 09:21:27;;;;;;;;;;;14.50;57.70;;;;;;5100629;28;20018;-74
2022/01/23 09:23:54;;;;;;;;;;;14.50;57.60;;;;;;5103143;28;19924;-74
2022/01/23 09:26:22;;;;;;;;;;;14.50;57.60;;;;;;5102124;28;20012;-74
2022/01/23 09:28:49;;;;;;;;;;;14.50;57.60;;;;;;5102838;28;19981;-74
2022/01/23 09:31:26;;;;;;;;;;;14.60;57.60;;;;;;5103668;28;20023;-74
2022/01/23 09:33:52;;;;;;;;;;;14.60;57.60;;;;;;5094780;28;20015;-75
2022/01/23 09:36:20;;;;;;;;;;;14.60;57.50;;;;;;5108722;28;20034;-75
2022/01/23 09:38:47;;;;;;;;;;;14.60;57.60;;;;;;5104120;28;19971;-75
2022/01/23 09:41:15;;;;;;;;;;;14.60;57.50;;;;;;5102363;28;20456;-76
2022/01/23 09:43:42;;;;;;;;;;;14.60;57.50;;;;;;5102549;28;19923;-74
2022/01/23 09:46:08;;;;;;;;;;;14.70;57.50;;;;;;5106203;28;20017;-74
2022/01/23 09:48:35;;;;;;;;;;;14.70;57.50;;;;;;5104931;28;19923;-74
2022/01/23 09:51:02;;;;;;;;;;;14.70;57.50;;;;;;5104850;28;19930;-76
2022/01/23 09:53:30;;;;;;;;;;;14.70;57.40;;;;;;5114085;28;19971;-73
2022/01/23 09:56:02;;;;;;;;;;;14.70;57.40;;;;;;5104896;28;20030;-74
2022/01/23 09:58:29;;;;;;;;;;;14.80;57.40;;;;;;5101506;28;19924;-74
2022/01/23 10:00:55;;;;;;;;;;;14.80;57.40;;;;;;5104375;28;19930;-74
2022/01/23 10:03:22;;;;;;;;;;;14.80;57.30;;;;;;5102133;28;19931;-75
2022/01/23 10:05:53;;;;;;;;;;;14.80;57.30;;;;;;5103803;28;19945;-75
2022/01/23 10:08:21;;;;;;;;;;;16.70;58.50;;;;;;5102527;28;19931;-74
2022/01/23 10:10:51;;;;;;;;;;;14.80;57.30;;;;;;5103618;28;19973;-73
2022/01/23 10:13:18;;;;;;;;;;;14.80;57.30;;;;;;5084591;28;19924;-73
2022/01/23 10:15:45;;;;;;;;;;;14.90;57.30;;;;;;5101389;28;19963;-74
2022/01/23 10:18:11;;;;;;;;;;;14.90;57.30;;;;;;5107751;28;20006;-74
2022/01/23 10:20:38;;;;;;;;;;;14.90;57.30;;;;;;5105341;28;19946;-73
2022/01/23 10:23:05;;;;;;;;;;;14.90;57.30;;;;;;5103856;28;19979;-74
2022/01/23 10:25:32;;;;;;;;;;;14.90;57.20;;;;;;5101304;28;19931;-74
2022/01/23 10:28:03;;;;;;;;;;;14.90;57.20;;;;;;5103200;28;20014;-75
2022/01/23 10:30:30;;;;;;;;;;;15.00;57.30;;;;;;5103277;28;20015;-74
2022/01/23 10:32:57;;;;;;;;;;;15.00;57.20;;;;;;5092159;28;19950;-73
2022/01/23 10:35:24;;;;;;;;;;;15.00;57.20;;;;;;5100903;28;19924;-78
2022/01/23 10:37:52;;;;;;;;;;;15.00;57.40;;;;;;5103257;28;19930;-76
2022/01/23 10:40:25;;;;;;;;;;;15.00;57.20;;;;;;5105037;28;19928;-73
2022/01/23 10:48:35;;;;;;;;;;;15.00;57.10;;;;;;5102435;28;20338;-73
2022/01/23 10:51:21;;;;;;;;;;;15.10;57.20;;;;;;5099333;28;19978;-73
2022/01/23 10:54:01;;;;;;;;;;;15.10;57.10;;;;;;5102731;28;20354;-72
2022/01/23 10:56:29;;;;;;;;;;;15.10;57.10;;;;;;5101807;28;19924;-73
2022/01/23 10:58:59;;;;;;;;;;;15.10;57.10;;;;;;5101004;28;19924;-73
2022/01/23 11:01:28;;;;;;;;;;;15.10;57.00;;;;;;5100393;28;20010;-72
2022/01/23 11:04:11;;;;;;;;;;;15.50;57.30;;;;;;5103031;28;19928;-72
2022/01/23 11:06:57;;;;;;;;;;;15.20;57.10;;;;;;5100767;28;19982;-73
2022/01/23 11:09:27;;;;;;;;;;;15.10;57.00;;;;;;5103993;28;19936;-73
2022/01/23 11:12:01;;;;;;;;;;;15.20;57.00;;;;;;5099340;28;19931;-73
2022/01/23 11:17:22;;;;;;;;;;;15.20;57.20;;;;;;5113295;27;20401;-74
2022/01/23 11:19:49;;;;;;;;;;;15.20;57.50;;;;;;5091299;28;20355;-73
2022/01/23 11:22:16;;;;;;;;;;;15.30;57.60;;;;;;5108756;28;19993;-73
2022/01/23 11:24:45;;;;;;;;;;;15.30;57.30;;;;;;5110077;28;20003;-74
2022/01/23 11:27:12;;;;;;;;;;;15.40;57.30;;;;;;5111766;28;19930;-73
2022/01/23 11:29:39;;;;;;;;;;;15.40;57.40;;;;;;5101615;28;20023;-73
2022/01/23 11:32:06;;;;;;;;;;;15.40;57.30;;;;;;5089430;28;20014;-73
2022/01/23 11:34:34;;;;;;;;;;;15.40;57.40;;;;;;5092977;28;20015;-73
2022/01/23 11:37:00;;;;;;;;;;;15.40;57.30;;;;;;5111152;28;20364;-73
2022/01/23 11:39:39;;;;;;;;;;;15.40;57.40;;;;;;5111591;28;20012;-73
2022/01/23 11:50:45;;;;;;;;;;;15.30;57.30;;;;;;5110038;28;19920;-73
2022/01/23 11:53:51;;;;;;;;;;;15.40;57.40;;;;;;5111675;28;19990;-73
2022/01/23 11:56:38;;;;;;;;;;;15.30;57.50;;;;;;5090860;28;19973;-73
2022/01/23 11:59:13;;;;;;;;;;;15.30;57.60;;;;;;5091097;28;20342;-73
2022/01/23 12:01:40;;;;;;;;;;;15.30;57.60;;;;;;5091246;28;19989;-73
2022/01/23 12:04:16;;;;;;;;;;;15.30;57.70;;;;;;5091135;28;20361;-73
2022/01/23 12:06:45;;;;;;;;;;;15.20;57.70;;;;;;5100110;28;20396;-73
2022/01/23 12:09:19;;;;;;;;;;;15.20;57.80;;;;;;5111021;28;19931;-73
2022/01/23 12:12:01;;;;;;;;;;;15.20;57.90;;;;;;5111011;28;20319;-74
2022/01/23 12:17:14;;;;;;;;;;;15.10;57.90;;;;;;5111202;28;19927;-74
2022/01/23 12:19:42;;;;;;;;;;;15.10;57.90;;;;;;5111116;28;20300;-73
2022/01/23 12:22:27;;;;;;;;;;;15.10;58.00;;;;;;5110864;28;19924;-72
2022/01/23 12:24:56;;;;;;;;;;;15.10;58.00;;;;;;5111196;28;19962;-72
2022/01/23 12:27:24;;;;;;;;;;;15.10;58.10;;;;;;5091386;28;19977;-73
2022/01/23 12:29:51;;;;;;;;;;;15.10;58.20;;;;;;5090122;28;19939;-73
2022/01/23 12:32:18;;;;;;;;;;;15.00;58.30;;;;;;5089893;28;20357;-73
2022/01/23 12:34:48;;;;;;;;;;;15.00;58.30;;;;;;5093857;28;19924;-73
2022/01/23 12:37:15;;;;;;;;;;;15.00;58.30;;;;;;5110977;28;20444;-73
2022/01/23 12:39:41;;;;;;;;;;;15.00;58.30;;;;;;5111155;28;19998;-73
2022/01/23 12:42:09;;;;;;;;;;;14.90;58.30;;;;;;5110965;28;19978;-73
2022/01/23 12:44:36;;;;;;;;;;;14.90;58.30;;;;;;5111102;28;20034;-73
2022/01/23 12:47:03;;;;;;;;;;;14.90;58.40;;;;;;5112012;28;20011;-73
2022/01/23 12:49:30;;;;;;;;;;;14.80;58.40;;;;;;5114862;28;19928;-72
2022/01/23 12:52:19;;;;;;;;;;;14.80;58.40;;;;;;5114018;28;20338;-72
2022/01/23 12:54:53;;;;;;;;;;;14.80;58.40;;;;;;5114421;28;19931;-72
2022/01/23 12:57:23;;;;;;;;;;;14.80;58.40;;;;;;5114091;28;19930;-72
2022/01/23 12:59:53;;;;;;;;;;;14.70;58.40;;;;;;5114669;28;20339;-72
2022/01/23 13:02:20;;;;;;;;;;;14.70;58.40;;;;;;5114336;28;20369;-72
2022/01/23 13:04:47;;;;;;;;;;;14.70;58.50;;;;;;5114163;28;19973;-72
2022/01/23 13:07:21;;;;;;;;;;;14.60;58.50;;;;;;5115188;28;19967;-72
2022/01/23 13:09:56;;;;;;;;;;;14.70;58.60;;;;;;5114059;28;19928;-72
2022/01/23 13:12:36;;;;;;;;;;;14.60;58.60;;;;;;5114027;28;20373;-72
2022/01/23 13:15:18;;;;;;;;;;;14.60;58.60;;;;;;5114983;28;19924;-72
2022/01/23 13:17:54;;;;;;;;;;;14.60;58.70;;;;;;5115055;28;19930;-72
2022/01/23 13:31:39;;;;;;;;;;;14.60;58.70;;;;;;5103038;28;19923;-74
2022/01/23 13:34:20;;;;;;;;;;;14.50;58.60;;;;;;5115574;28;19930;-74
2022/01/23 13:36:56;;;;;;;;;;;14.50;58.70;;;;;;5108594;28;20411;-74
2022/01/23 13:39:23;;;;;;;;;;;14.50;58.70;;;;;;5114986;28;20451;-73
2022/01/23 13:41:59;;;;;;;;;;;14.60;58.80;;;;;;5106999;28;19924;-72
2022/01/23 13:53:11;;;;;;;;;;;14.60;58.70;;;;;;5097559;28;19967;-73
2022/01/23 13:58:34;;;;;;;;;;;14.60;58.70;;;;;;5126846;27;20348;-72
2022/01/23 14:01:15;;;;;;;;;;;14.60;58.70;;;;;;5093108;28;19924;-73
2022/01/23 14:03:43;;;;;;;;;;;14.60;58.70;;;;;;5092720;28;19931;-74
2022/01/23 14:06:09;;;;;;;;;;;14.60;58.70;;;;;;5093432;28;19977;-74
2022/01/23 14:08:36;;;;;;;;;;;14.70;58.70;;;;;;5101815;28;20018;-72
2022/01/23 14:11:03;;;;;;;;;;;14.70;58.70;;;;;;5091635;28;20014;-72
2022/01/23 14:13:30;;;;;;;;;;;14.70;58.70;;;;;;5090837;28;19946;-72
2022/01/23 14:15:56;;;;;;;;;;;14.70;58.70;;;;;;5092300;28;20082;-72
2022/01/23 14:18:25;;;;;;;;;;;14.80;58.70;;;;;;5092044;28;19967;-72
2022/01/23 14:20:57;;;;;;;;;;;14.80;58.70;;;;;;5099341;28;20044;-72
2022/01/23 14:23:24;;;;;;;;;;;14.80;58.60;;;;;;5112385;28;20364;-72
2022/01/23 14:25:51;;;;;;;;;;;14.90;58.60;;;;;;5112246;28;20007;-72
2022/01/23 14:28:20;;;;;;;;;;;14.90;58.50;;;;;;5113491;28;20253;-72
2022/01/23 14:30:47;;;;;;;;;;;14.90;58.50;;;;;;5093165;28;19935;-72
2022/01/23 14:33:14;;;;;;;;;;;14.90;58.50;;;;;;5107086;28;19923;-72
2022/01/23 14:35:42;;;;;;;;;;;14.90;58.40;;;;;;5113141;28;19928;-72
2022/01/23 14:38:09;;;;;;;;;;;15.00;58.40;;;;;;5112304;28;19970;-72
2022/01/23 14:40:36;;;;;;;;;;;15.00;58.40;;;;;;5112574;28;20022;-72
2022/01/23 14:43:04;;;;;;;;;;;15.00;58.40;;;;;;5112339;28;19924;-72
2022/01/23 14:45:31;;;;;;;;;;;15.00;58.40;;;;;;5112268;28;20018;-72
2022/01/23 14:47:58;;;;;;;;;;;15.10;58.30;;;;;;5111984;28;20018;-72
2022/01/23 14:50:25;;;;;;;;;;;15.10;58.30;;;;;;5112177;28;20010;-72
2022/01/23 14:52:53;;;;;;;;;;;15.10;58.30;;;;;;5111975;28;19927;-72
2022/01/23 14:55:20;;;;;;;;;;;15.10;58.30;;;;;;5112207;28;20278;-72
2022/01/23 14:57:47;;;;;;;;;;;15.10;58.30;;;;;;5112050;28;19930;-72
2022/01/23 15:00:14;;;;;;;;;;;15.10;58.30;;;;;;5113257;28;19924;-72
2022/01/23 15:02:41;;;;;;;;;;;15.10;58.30;;;;;;5095002;28;19924;-72
2022/01/23 15:05:08;;;;;;;;;;;15.10;58.20;;;;;;5111766;28;20019;-72
2022/01/23 15:07:35;;;;;;;;;;;15.10;58.20;;;;;;5112025;28;19930;-72
2022/01/23 15:10:04;;;;;;;;;;;15.10;58.20;;;;;;5111095;28;20345;-72
2022/01/23 15:12:30;;;;;;;;;;;15.10;58.20;;;;;;5111742;28;19930;-72
2022/01/23 15:14:57;;;;;;;;;;;15.10;58.70;;;;;;5111898;28;20022;-72
2022/01/23 15:17:25;;;;;;;;;;;15.10;58.20;;;;;;5111765;28;20011;-72
2022/01/23 15:19:52;;;;;;;;;;;15.10;58.10;;;;;;5111612;28;19924;-72
2022/01/23 15:22:18;;;;;;;;;;;15.10;58.20;;;;;;5110898;28;20014;-72
2022/01/23 15:24:46;;;;;;;;;;;15.10;58.10;;;;;;5111519;28;19924;-72
2022/01/23 15:27:14;;;;;;;;;;;15.10;58.10;;;;;;5111323;28;19923;-72
2022/01/23 15:29:41;;;;;;;;;;;15.10;58.20;;;;;;5101304;28;20444;-72
2022/01/23 15:32:08;;;;;;;;;;;15.10;58.10;;;;;;5091353;28;20026;-72
2022/01/23 15:34:35;;;;;;;;;;;15.10;58.10;;;;;;5093458;28;19924;-72
2022/01/23 15:37:02;;;;;;;;;;;15.10;58.10;;;;;;5111270;28;19930;-72
2022/01/23 15:39:30;;;;;;;;;;;15.10;58.10;;;;;;5112706;28;20014;-72
2022/01/23 15:41:57;;;;;;;;;;;15.10;58.10;;;;;;5111268;28;19923;-72
2022/01/23 15:44:25;;;;;;;;;;;15.10;58.10;;;;;;5111583;28;19923;-72
2022/01/23 15:46:51;;;;;;;;;;;15.10;58.10;;;;;;5111118;28;20374;-72
2022/01/23 15:49:18;;;;;;;;;;;15.10;58.10;;;;;;5112618;28;19924;-72
2022/01/23 15:51:47;;;;;;;;;;;15.10;58.10;;;;;;5111501;28;20334;-72
2022/01/23 15:54:14;;;;;;;;;;;15.20;58.10;;;;;;5111480;28;19924;-72
2022/01/23 15:56:40;;;;;;;;;;;15.10;58.10;;;;;;5111280;28;19924;-72
2022/01/23 15:59:07;;;;;;;;;;;15.10;58.10;;;;;;5111289;28;20436;-72
2022/01/23 16:01:35;;;;;;;;;;;13.30;57.00;;;;;;5112419;28;20007;-72
2022/01/23 16:04:01;;;;;;;;;;;15.20;58.20;;;;;;5112825;28;19930;-72
2022/01/23 16:06:28;;;;;;;;;;;15.20;58.10;;;;;;5111152;28;20018;-72
2022/01/23 16:08:55;;;;;;;;;;;15.10;58.10;;;;;;5111394;28;20019;-72
2022/01/23 16:11:21;;;;;;;;;;;15.20;58.10;;;;;;5111164;28;19924;-72
2022/01/23 16:13:48;;;;;;;;;;;15.10;58.10;;;;;;5110942;28;20308;-72
2022/01/23 16:16:14;;;;;;;;;;;15.10;58.10;;;;;;5112151;28;19973;-72
2022/01/23 16:18:42;;;;;;;;;;;15.10;58.10;;;;;;5112306;28;19930;-72
2022/01/23 16:21:09;;;;;;;;;;;15.20;58.10;;;;;;5111604;28;19938;-72
2022/01/23 16:23:36;;;;;;;;;;;15.20;58.10;;;;;;5115146;28;19930;-72
2022/01/23 16:26:03;;;;;;;;;;;15.20;58.10;;;;;;5114918;28;20006;-72
2022/01/23 16:28:29;;;;;;;;;;;15.20;58.10;;;;;;5114478;28;19930;-72
2022/01/23 16:30:57;;;;;;;;;;;15.20;58.10;;;;;;5094567;28;20007;-72
2022/01/23 16:33:24;;;;;;;;;;;15.20;58.10;;;;;;5094465;28;20418;-72
2022/01/23 16:35:52;;;;;;;;;;;15.20;58.10;;;;;;5107142;28;19932;-72
2022/01/23 16:38:19;;;;;;;;;;;15.20;58.00;;;;;;5114721;28;20015;-72
2022/01/23 16:40:46;;;;;;;;;;;15.20;58.00;;;;;;5114874;28;20015;-72
2022/01/23 16:43:13;;;;;;;;;;;15.20;58.00;;;;;;5114508;28;19952;-72
2022/01/23 16:45:39;;;;;;;;;;;15.20;58.10;;;;;;5114315;28;19931;-72
2022/01/23 16:48:06;;;;;;;;;;;15.20;58.00;;;;;;5114755;28;20447;-72
2022/01/23 16:50:33;;;;;;;;;;;15.20;58.00;;;;;;5114492;28;20342;-72
2022/01/23 16:53:00;;;;;;;;;;;15.20;58.00;;;;;;5114525;28;20023;-72
2022/01/23 16:55:27;;;;;;;;;;;15.20;58.00;;;;;;5113806;28;20014;-72
2022/01/23 16:57:54;;;;;;;;;;;15.20;58.00;;;;;;5114590;28;19930;-72
2022/01/23 17:00:20;;;;;;;;;;;15.20;58.00;;;;;;5114139;28;20365;-72
2022/01/23 17:02:47;;;;;;;;;;;15.20;58.00;;;;;;5114526;28;19924;-72
2022/01/23 17:05:13;;;;;;;;;;;15.20;58.00;;;;;;5114242;28;19927;-72
2022/01/23 17:07:41;;;;;;;;;;;15.20;58.00;;;;;;5113942;28;20015;-72
2022/01/23 17:10:10;;;;;;;;;;;15.20;58.00;;;;;;5114353;28;19977;-72